POT weather

Ken Jones Airport
Ken Jones, Portland, Jamaica

Public forecast

Using degrees Celsius for public forecast. Weather courtesy of forecast.io.

Closest aviation weather report (METAR) to Ken Jones Airport

Closest report is Norman Manley International Airport, 21.4 nm (39.6 km) SW. Retrieved 2019/10/21 13:00 UTC (45 minutes ago):

MKJP 211300Z 06007KT 9999 SCT014 SCT016CB BKN070 25/26 Q1015

Closest aviation forecast (TAF) to Ken Jones Airport

Closest forecast is Norman Manley International Airport, 21.4 nm (39.6 km) SW. Retrieved 2019/10/21 12:21 UTC (1 hour ago):

TAF MKJP 211115Z 2112/2212 14016KT 9999 SCT018 SCT020CB TEMPO 2112/2122 5000 TSRA BKN016 BKN018CB BECMG 2201/2203 35008KT FEW020 FEW022CB